Time;durP1;ratioP1;P1;durP2;ratioP2;P2;SDS_P1;SDS_P2;PMS_P1;PMS_P2;Temp;Humidity;BMP_temperature;BMP_pressure;BME280_temperature;BME280_humidity;BME280_pressure;Samples;Min_cycle;Max_cycle;Signal;HPM_P1;HPM_P2
2022/09/15 00:01:38;;;;;;;17.38;11.13;;;15.00;97.80;;;;;;5054530;28;20551;-78
2022/09/15 00:04:04;;;;;;;18.60;11.00;;;15.00;97.90;;;;;;5054204;28;20029;-79
2022/09/15 00:06:34;;;;;;;18.40;10.15;;;15.10;98.10;;;;;;5055148;28;20013;-79
2022/09/15 00:09:00;;;;;;;14.98;9.48;;;15.10;98.20;;;;;;5053568;28;20120;-79
2022/09/15 00:11:28;;;;;;;16.80;10.18;;;15.10;98.30;;;;;;5053692;28;20108;-79
2022/09/15 00:13:56;;;;;;;17.23;10.90;;;15.10;98.40;;;;;;5053369;28;20017;-79
2022/09/15 00:16:23;;;;;;;16.00;9.57;;;15.10;98.50;;;;;;5054540;28;20033;-79
2022/09/15 00:18:49;;;;;;;16.65;9.38;;;15.10;98.60;;;;;;5054572;28;20108;-79
2022/09/15 00:21:25;;;;;;;17.05;10.88;;;15.20;98.80;;;;;;5053186;28;20595;-79
2022/09/15 00:23:51;;;;;;;15.70;10.82;;;15.20;98.90;;;;;;5054526;28;20032;-80
2022/09/15 00:26:22;;;;;;;17.60;10.55;;;15.20;99.00;;;;;;5053270;28;20094;-79
2022/09/15 00:28:48;;;;;;;19.25;10.32;;;15.20;99.10;;;;;;5054305;28;20028;-79
2022/09/15 00:31:16;;;;;;;16.48;10.85;;;15.20;99.20;;;;;;5036407;28;20377;-79
2022/09/15 00:33:46;;;;;;;16.80;10.40;;;15.20;99.20;;;;;;5053317;28;20428;-79
2022/09/15 00:36:13;;;;;;;19.63;11.10;;;15.20;99.30;;;;;;5053319;28;20017;-78
2022/09/15 00:38:39;;;;;;;14.35;9.68;;;15.30;99.30;;;;;;5036337;28;20048;-79
2022/09/15 00:41:07;;;;;;;14.98;9.55;;;15.20;99.40;;;;;;5052832;28;20025;-79
2022/09/15 00:43:57;;;;;;;17.85;11.38;;;15.20;99.40;;;;;;5053006;28;20028;-78
2022/09/15 00:46:29;;;;;;;16.60;10.80;;;15.20;99.50;;;;;;5052777;28;20041;-78
2022/09/15 00:49:15;;;;;;;18.42;10.63;;;15.20;99.50;;;;;;5054135;28;20031;-79
2022/09/15 00:51:55;;;;;;;17.02;11.07;;;15.20;99.70;;;;;;5053989;28;20039;-81
2022/09/15 00:54:31;;;;;;;20.05;11.43;;;15.30;99.80;;;;;;5054790;28;20028;-79
2022/09/15 00:57:03;;;;;;;18.60;11.60;;;15.30;99.90;;;;;;5054727;28;20029;-79
2022/09/15 00:59:32;;;;;;;16.85;10.82;;;15.30;99.90;;;;;;5052308;28;20028;-79
2022/09/15 01:02:06;;;;;;;18.50;11.48;;;15.30;99.90;;;;;;5053802;28;20037;-80
2022/09/15 01:04:32;;;;;;;15.30;10.90;;;15.30;99.90;;;;;;5052397;28;20024;-79
2022/09/15 01:07:03;;;;;;;17.92;11.55;;;15.40;99.90;;;;;;5053193;28;20032;-79
2022/09/15 01:09:35;;;;;;;14.38;10.38;;;15.40;99.90;;;;;;5052409;28;20067;-79
2022/09/15 01:12:01;;;;;;;18.15;11.15;;;15.40;99.90;;;;;;5054096;28;20075;-79
2022/09/15 01:14:27;;;;;;;21.67;11.10;;;15.40;99.90;;;;;;5053536;28;20112;-79
2022/09/15 01:17:37;;;;;;;19.15;11.18;;;15.40;99.90;;;;;;5053672;28;20449;-79
2022/09/15 01:20:21;;;;;;;17.02;10.40;;;15.40;99.90;;;;;;5048396;28;20123;-78
2022/09/15 01:23:00;;;;;;;15.82;10.77;;;15.40;99.90;;;;;;5053370;28;20086;-79
2022/09/15 01:25:54;;;;;;;16.20;10.27;;;15.40;99.90;;;;;;5052104;28;20017;-78
2022/09/15 01:28:48;;;;;;;19.88;10.55;;;15.40;99.90;;;;;;5053719;28;20032;-79
2022/09/15 01:31:20;;;;;;;14.82;10.05;;;15.50;99.90;;;;;;5053927;28;20029;-79
2022/09/15 01:33:58;;;;;;;19.48;11.07;;;15.40;99.90;;;;;;5052539;28;20070;-79
2022/09/15 01:36:31;;;;;;;24.85;11.43;;;15.40;99.90;;;;;;5053248;28;20036;-79
2022/09/15 01:39:12;;;;;;;16.95;10.13;;;15.40;99.90;;;;;;5052103;28;20107;-78
2022/09/15 01:41:49;;;;;;;18.65;11.18;;;15.40;99.90;;;;;;5051918;28;20645;-78
2022/09/15 01:44:23;;;;;;;19.83;11.55;;;15.40;99.90;;;;;;5053141;28;20040;-79
2022/09/15 01:46:53;;;;;;;15.82;10.05;;;15.40;99.90;;;;;;5051983;28;20049;-79
2022/09/15 01:49:23;;;;;;;14.07;10.05;;;15.40;99.90;;;;;;5053492;28;20025;-79
2022/09/15 01:51:52;;;;;;;19.35;10.50;;;15.40;99.90;;;;;;5053360;28;20025;-79
2022/09/15 01:54:29;;;;;;;16.35;10.32;;;15.50;99.90;;;;;;5051956;28;20033;-79
2022/09/15 01:56:56;;;;;;;16.08;10.27;;;15.40;99.90;;;;;;5053053;28;20033;-79
2022/09/15 01:59:22;;;;;;;17.48;10.57;;;15.40;99.90;;;;;;5053459;28;20033;-79
2022/09/15 02:01:52;;;;;;;18.23;10.13;;;15.40;99.90;;;;;;5051742;28;20120;-79
2022/09/15 02:04:35;;;;;;;17.00;10.52;;;15.50;99.90;;;;;;5053144;28;20025;-79
2022/09/15 02:07:19;;;;;;;16.52;10.60;;;15.50;99.90;;;;;;5052988;28;20028;-79
2022/09/15 02:10:10;;;;;;;16.80;10.75;;;15.50;99.90;;;;;;5053004;28;20492;-79
2022/09/15 02:12:46;;;;;;;16.20;9.90;;;15.50;99.90;;;;;;5053038;28;20025;-79
2022/09/15 02:15:16;;;;;;;15.05;9.52;;;15.50;99.90;;;;;;5052936;28;20028;-80
2022/09/15 02:17:46;;;;;;;17.92;9.82;;;15.50;99.90;;;;;;5052842;28;20079;-78
2022/09/15 02:20:37;;;;;;;14.65;10.13;;;15.50;99.90;;;;;;5051451;28;20083;-79
2022/09/15 02:23:17;;;;;;;16.17;10.57;;;15.50;99.90;;;;;;5055023;28;20031;-78
2022/09/15 02:25:47;;;;;;;17.70;10.35;;;15.50;99.90;;;;;;5055312;28;20107;-79
2022/09/15 02:28:15;;;;;;;15.13;10.15;;;15.50;99.90;;;;;;5055302;28;20553;-78
2022/09/15 02:30:43;;;;;;;17.83;10.63;;;15.50;99.90;;;;;;5055431;28;20361;-80
2022/09/15 02:33:18;;;;;;;15.35;9.82;;;15.50;99.90;;;;;;5056324;28;20029;-79
2022/09/15 02:35:44;;;;;;;18.55;10.10;;;15.40;99.90;;;;;;5055119;28;20091;-79
2022/09/15 02:38:14;;;;;;;17.33;11.13;;;15.40;99.90;;;;;;5056427;28;20040;-79
2022/09/15 02:40:42;;;;;;;18.48;11.00;;;15.30;99.90;;;;;;5055218;28;20033;-79
2022/09/15 02:43:12;;;;;;;16.00;10.48;;;15.30;99.90;;;;;;5056286;28;20029;-79
2022/09/15 02:45:38;;;;;;;16.85;9.88;;;15.30;99.90;;;;;;5055114;28;20025;-78
2022/09/15 02:48:04;;;;;;;16.02;9.75;;;15.20;99.90;;;;;;5055055;28;20112;-78
2022/09/15 02:50:30;;;;;;;15.98;10.32;;;15.20;99.90;;;;;;5056134;28;20028;-78
2022/09/15 02:52:56;;;;;;;15.60;9.77;;;15.10;99.90;;;;;;5056425;28;20081;-79
2022/09/15 02:55:26;;;;;;;14.50;8.55;;;15.10;99.90;;;;;;5038283;28;20032;-78
2022/09/15 02:57:51;;;;;;;14.43;8.45;;;15.10;99.90;;;;;;5038850;28;20032;-78
2022/09/15 03:00:18;;;;;;;13.63;8.05;;;15.10;99.90;;;;;;5054942;28;20496;-78
2022/09/15 03:02:48;;;;;;;11.82;7.35;;;15.10;99.90;;;;;;5055312;28;20111;-79
2022/09/15 03:05:16;;;;;;;11.93;7.60;;;15.10;99.90;;;;;;5056302;28;20051;-79
2022/09/15 03:07:42;;;;;;;17.00;7.38;;;15.10;99.90;;;;;;5054797;28;20021;-78
2022/09/15 03:10:10;;;;;;;13.13;8.00;;;15.10;99.90;;;;;;5054674;28;20025;-79
2022/09/15 03:12:41;;;;;;;13.43;7.68;;;15.10;99.90;;;;;;5054653;28;20103;-79
2022/09/15 03:15:09;;;;;;;13.70;6.97;;;15.10;99.90;;;;;;5054934;28;20083;-79
2022/09/15 03:17:42;;;;;;;12.90;7.13;;;15.10;99.90;;;;;;5054674;28;20025;-79
2022/09/15 03:20:10;;;;;;;14.90;6.85;;;15.10;99.90;;;;;;5055737;28;20025;-79
2022/09/15 03:22:37;;;;;;;11.23;5.90;;;15.20;99.90;;;;;;5054613;28;20083;-79
2022/09/15 03:25:04;;;;;;;11.45;6.47;;;15.20;99.90;;;;;;5055867;28;20099;-79
2022/09/15 03:27:30;;;;;;;12.93;6.45;;;15.20;99.90;;;;;;5055501;28;20032;-79
2022/09/15 03:29:56;;;;;;;12.73;6.18;;;15.20;99.90;;;;;;5054274;28;20021;-79
2022/09/15 03:32:22;;;;;;;10.38;5.85;;;15.20;99.90;;;;;;5055579;28;20025;-79
2022/09/15 03:34:48;;;;;;;10.38;5.78;;;15.20;99.90;;;;;;5053038;28;20079;-79
2022/09/15 03:37:13;;;;;;;7.57;5.15;;;15.20;99.90;;;;;;5054241;28;20497;-79
2022/09/15 03:39:39;;;;;;;11.55;5.95;;;15.10;99.90;;;;;;5037484;28;20488;-78
2022/09/15 03:42:05;;;;;;;10.85;6.00;;;15.20;99.90;;;;;;5053943;28;20124;-79
2022/09/15 03:44:30;;;;;;;10.38;5.25;;;15.10;99.90;;;;;;5054142;28;20109;-80
2022/09/15 03:46:57;;;;;;;11.57;4.90;;;15.20;99.90;;;;;;5054470;28;20033;-79
2022/09/15 03:49:23;;;;;;;11.70;5.47;;;15.20;99.90;;;;;;5053776;28;20096;-79
2022/09/15 03:51:49;;;;;;;10.65;5.47;;;15.20;99.90;;;;;;5054087;28;20056;-79
2022/09/15 03:54:15;;;;;;;10.57;5.30;;;15.20;99.90;;;;;;5053828;28;20452;-78
2022/09/15 03:56:41;;;;;;;7.63;4.20;;;15.20;99.90;;;;;;5037214;28;20417;-79
2022/09/15 03:59:07;;;;;;;8.15;4.25;;;15.20;99.90;;;;;;5053788;28;20102;-78
2022/09/15 04:01:36;;;;;;;8.77;4.28;;;15.20;99.90;;;;;;5054925;28;20052;-78
2022/09/15 04:04:02;;;;;;;8.45;3.88;;;15.20;99.90;;;;;;5054947;28;20367;-78
2022/09/15 04:06:27;;;;;;;8.55;4.13;;;15.20;99.90;;;;;;5053519;28;20083;-78
2022/09/15 04:08:53;;;;;;;10.15;4.18;;;15.30;99.90;;;;;;5054838;28;20116;-78
2022/09/15 04:11:21;;;;;;;10.60;4.38;;;15.30;99.90;;;;;;5036804;28;20032;-78
2022/09/15 04:13:48;;;;;;;7.90;4.15;;;15.30;99.90;;;;;;5054635;28;20025;-79
2022/09/15 04:16:16;;;;;;;10.25;4.13;;;15.30;99.90;;;;;;5053687;28;20078;-79
2022/09/15 04:18:42;;;;;;;7.80;3.90;;;15.30;99.90;;;;;;5054674;28;20029;-79
2022/09/15 04:21:12;;;;;;;9.52;3.85;;;15.30;99.90;;;;;;5053280;28;20110;-79
2022/09/15 04:23:38;;;;;;;7.47;3.85;;;15.40;99.90;;;;;;5053135;28;20028;-78
2022/09/15 04:26:10;;;;;;;9.60;4.03;;;15.40;99.90;;;;;;5053088;28;20009;-79
2022/09/15 04:28:37;;;;;;;7.78;3.85;;;15.40;99.90;;;;;;5054764;28;20032;-78
2022/09/15 04:31:08;;;;;;;8.80;3.28;;;15.40;99.90;;;;;;5053407;28;20120;-78
2022/09/15 04:33:34;;;;;;;8.40;3.33;;;15.40;99.90;;;;;;5055016;28;20037;-79
2022/09/15 04:36:09;;;;;;;6.38;2.70;;;15.40;99.90;;;;;;5053197;28;20036;-78
2022/09/15 04:38:34;;;;;;;7.95;2.85;;;15.40;99.90;;;;;;5054215;28;20021;-78
2022/09/15 04:41:02;;;;;;;6.50;2.75;;;15.40;99.90;;;;;;5052964;28;20473;-78
2022/09/15 04:43:29;;;;;;;7.07;2.65;;;15.40;99.90;;;;;;5054050;28;20029;-78
2022/09/15 04:45:55;;;;;;;9.52;2.75;;;15.50;99.90;;;;;;5035655;28;20555;-79
2022/09/15 04:48:22;;;;;;;7.35;2.47;;;15.50;99.90;;;;;;5052738;28;20017;-79
2022/09/15 04:50:47;;;;;;;5.00;2.40;;;15.40;99.90;;;;;;5052781;28;20029;-79
2022/09/15 04:53:14;;;;;;;5.25;2.53;;;15.40;99.90;;;;;;5052714;28;20112;-79
2022/09/15 04:55:40;;;;;;;7.85;2.55;;;15.40;99.80;;;;;;5053723;28;20037;-79
2022/09/15 04:58:05;;;;;;;4.30;1.65;;;15.50;99.80;;;;;;5060221;28;20028;-79
2022/09/15 05:00:36;;;;;;;7.25;2.17;;;15.40;99.60;;;;;;5055361;28;20114;-79
2022/09/15 05:03:02;;;;;;;5.68;1.88;;;15.40;99.60;;;;;;5059080;28;20029;-79
2022/09/15 05:05:27;;;;;;;6.45;1.75;;;15.40;99.50;;;;;;5059368;28;20443;-79
2022/09/15 05:07:53;;;;;;;5.38;1.50;;;15.50;99.50;;;;;;5064103;28;20036;-79
2022/09/15 05:10:19;;;;;;;4.97;1.40;;;15.40;99.30;;;;;;5068093;28;20481;-79
2022/09/15 05:12:45;;;;;;;7.47;1.90;;;15.50;99.30;;;;;;5035536;28;20033;-79
2022/09/15 05:15:11;;;;;;;7.50;2.10;;;15.50;99.20;;;;;;5059756;28;20375;-80
2022/09/15 05:17:37;;;;;;;5.65;1.45;;;15.50;99.10;;;;;;5072507;28;20115;-78
2022/09/15 05:20:04;;;;;;;9.60;1.80;;;15.50;99.00;;;;;;5072366;28;20107;-80
2022/09/15 05:22:30;;;;;;;6.95;1.67;;;15.60;98.90;;;;;;5056015;28;20052;-79
2022/09/15 05:24:55;;;;;;;5.15;2.00;;;15.60;98.80;;;;;;5072582;28;20123;-79
2022/09/15 05:27:21;;;;;;;6.50;2.13;;;15.60;98.70;;;;;;5072068;28;20024;-79
2022/09/15 05:29:47;;;;;;;7.30;1.75;;;15.60;98.70;;;;;;5072131;28;20103;-79
2022/09/15 05:32:13;;;;;;;5.65;1.50;;;15.60;98.60;;;;;;5066505;28;20028;-78
2022/09/15 05:34:38;;;;;;;5.00;1.45;;;15.60;98.50;;;;;;5073305;28;20029;-78
2022/09/15 05:37:04;;;;;;;5.13;1.38;;;15.60;98.50;;;;;;5072739;28;20046;-79
2022/09/15 05:39:30;;;;;;;7.38;1.98;;;15.60;98.40;;;;;;5064960;28;20029;-78
2022/09/15 05:41:55;;;;;;;6.90;1.90;;;15.70;98.30;;;;;;5061363;28;20025;-79
2022/09/15 05:44:21;;;;;;;7.68;1.55;;;15.70;98.50;;;;;;5035406;28;20543;-79
2022/09/15 05:46:48;;;;;;;5.13;1.25;;;15.70;98.10;;;;;;5052063;28;20021;-79
2022/09/15 05:49:13;;;;;;;4.75;1.50;;;15.70;98.10;;;;;;5053109;28;20046;-79
2022/09/15 05:51:39;;;;;;;5.38;1.55;;;15.70;98.00;;;;;;5052045;28;20477;-79
2022/09/15 05:54:05;;;;;;;4.65;1.20;;;15.70;97.90;;;;;;5053017;28;20481;-79
2022/09/15 05:56:31;;;;;;;6.40;1.45;;;15.70;97.80;;;;;;5053039;28;20438;-77
2022/09/15 05:58:57;;;;;;;8.00;1.75;;;15.80;97.80;;;;;;5055889;28;20477;-77
2022/09/15 06:01:26;;;;;;;6.32;1.63;;;15.70;97.70;;;;;;5055754;28;20045;-77
2022/09/15 06:03:53;;;;;;;6.38;1.75;;;15.70;98.00;;;;;;5039972;28;20025;-77
2022/09/15 06:06:20;;;;;;;5.03;1.50;;;15.70;97.70;;;;;;5056390;28;20448;-76
2022/09/15 06:08:48;;;;;;;5.30;1.23;;;15.80;97.70;;;;;;5055963;28;20110;-76
2022/09/15 06:11:19;;;;;;;3.65;1.10;;;15.80;97.70;;;;;;5055469;28;20040;-76
2022/09/15 06:13:45;;;;;;;7.05;1.30;;;15.80;97.70;;;;;;5056677;28;20075;-76
2022/09/15 06:16:18;;;;;;;4.47;1.25;;;15.80;97.70;;;;;;5055203;28;20025;-78
2022/09/15 06:18:44;;;;;;;4.93;0.95;;;15.80;97.70;;;;;;5056623;28;20384;-77
2022/09/15 06:21:17;;;;;;;4.25;1.35;;;15.90;97.70;;;;;;5056739;28;20504;-77
2022/09/15 06:23:43;;;;;;;4.45;1.60;;;15.90;97.60;;;;;;5056499;28;20095;-77
2022/09/15 06:26:11;;;;;;;4.72;1.00;;;16.00;97.60;;;;;;5055891;28;20051;-77
2022/09/15 06:28:38;;;;;;;4.20;1.38;;;16.00;97.60;;;;;;5055433;28;20067;-77
2022/09/15 06:31:09;;;;;;;3.70;1.75;;;16.00;97.60;;;;;;5055396;28;20021;-77
2022/09/15 06:33:34;;;;;;;5.40;1.27;;;16.10;97.50;;;;;;5055337;28;20396;-77
2022/09/15 06:36:01;;;;;;;5.28;1.30;;;16.20;97.40;;;;;;5056469;28;20039;-77
2022/09/15 06:38:27;;;;;;;5.40;1.73;;;16.20;97.30;;;;;;5055453;28;20029;-77
2022/09/15 06:40:55;;;;;;;7.07;1.17;;;16.30;97.20;;;;;;5056739;28;20098;-77
2022/09/15 06:43:21;;;;;;;4.82;2.10;;;16.30;97.10;;;;;;5055422;28;20501;-77
2022/09/15 06:45:46;;;;;;;5.60;1.10;;;16.30;96.90;;;;;;5055312;28;20017;-78
2022/09/15 06:48:12;;;;;;;5.90;1.10;;;16.40;96.80;;;;;;5055411;28;20033;-78
2022/09/15 06:50:37;;;;;;;2.83;0.70;;;16.40;96.60;;;;;;5038420;28;20048;-77
2022/09/15 06:53:06;;;;;;;5.55;1.15;;;16.50;96.40;;;;;;5038400;28;20049;-77
2022/09/15 06:55:32;;;;;;;5.07;0.70;;;16.50;96.20;;;;;;5055087;28;20115;-77
2022/09/15 06:57:58;;;;;;;4.70;1.00;;;16.50;96.00;;;;;;5056162;28;20103;-77
2022/09/15 07:00:24;;;;;;;4.85;0.75;;;16.50;95.90;;;;;;5038101;28;20059;-77
2022/09/15 07:02:50;;;;;;;4.78;0.98;;;16.60;95.80;;;;;;5038493;28;20061;-77
2022/09/15 07:05:16;;;;;;;3.50;0.80;;;16.60;95.70;;;;;;5055057;28;20404;-77
2022/09/15 07:07:42;;;;;;;4.35;0.80;;;16.70;95.60;;;;;;5056252;28;20103;-77
2022/09/15 07:10:08;;;;;;;2.35;0.70;;;16.70;95.40;;;;;;5021809;28;20171;-77
2022/09/15 07:12:34;;;;;;;3.55;0.80;;;16.80;95.20;;;;;;5021594;28;20036;-77
2022/09/15 07:14:59;;;;;;;3.85;0.70;;;16.80;94.90;;;;;;5038066;28;20029;-78
2022/09/15 07:17:26;;;;;;;6.13;1.05;;;16.90;94.70;;;;;;5054809;28;20039;-78
2022/09/15 07:19:52;;;;;;;7.38;1.40;;;16.90;94.40;;;;;;5055892;28;20087;-78
2022/09/15 07:22:17;;;;;;;3.08;0.60;;;16.90;94.50;;;;;;5054426;28;20132;-77
2022/09/15 07:24:43;;;;;;;6.10;1.00;;;16.90;94.00;;;;;;5054546;28;20513;-77
2022/09/15 07:27:09;;;;;;;5.88;0.70;;;17.00;93.80;;;;;;5054293;28;20485;-77
2022/09/15 07:29:37;;;;;;;2.42;0.50;;;17.00;93.60;;;;;;5055978;28;20031;-77
2022/09/15 07:32:03;;;;;;;5.03;0.95;;;17.00;93.10;;;;;;5055879;28;20040;-77
2022/09/15 07:34:28;;;;;;;5.00;0.80;;;17.10;93.10;;;;;;5054430;28;20473;-77
2022/09/15 07:36:54;;;;;;;3.08;0.45;;;17.10;92.90;;;;;;5054665;28;20435;-77
2022/09/15 07:39:19;;;;;;;4.25;0.70;;;17.10;92.70;;;;;;5054775;28;20473;-77
2022/09/15 07:41:45;;;;;;;6.03;1.08;;;17.20;92.70;;;;;;5037662;28;20074;-77
2022/09/15 07:44:12;;;;;;;4.50;0.50;;;17.30;92.50;;;;;;5054112;28;20028;-77
2022/09/15 07:46:37;;;;;;;2.97;0.60;;;17.30;92.30;;;;;;5054272;28;20022;-77
2022/09/15 07:49:03;;;;;;;7.13;0.63;;;17.40;91.80;;;;;;5054398;28;20032;-77
2022/09/15 07:51:29;;;;;;;5.50;0.60;;;17.50;91.40;;;;;;5055086;28;20028;-77
2022/09/15 07:53:55;;;;;;;4.30;0.55;;;17.50;91.20;;;;;;5054108;28;20025;-77
2022/09/15 07:56:22;;;;;;;8.23;0.70;;;17.50;91.00;;;;;;5054989;28;20358;-77
2022/09/15 07:58:48;;;;;;;3.53;0.60;;;17.60;90.80;;;;;;5053765;28;20033;-77
2022/09/15 08:01:15;;;;;;;2.47;0.50;;;17.60;90.60;;;;;;5054882;28;20052;-77
2022/09/15 08:03:42;;;;;;;6.07;0.70;;;17.60;90.40;;;;;;5054034;28;20389;-77
2022/09/15 08:06:08;;;;;;;5.88;0.80;;;17.60;90.20;;;;;;5053810;28;20432;-77
2022/09/15 08:08:36;;;;;;;8.15;1.05;;;17.70;90.00;;;;;;5037250;28;20469;-77
2022/09/15 08:11:09;;;;;;;2.75;0.50;;;17.60;88.20;;;;;;5053546;28;20024;-77
2022/09/15 08:13:36;;;;;;;4.18;0.68;;;17.70;88.60;;;;;;5053523;28;20441;-77
2022/09/15 08:16:09;;;;;;;5.28;0.60;;;17.70;88.10;;;;;;5055137;28;20507;-76
2022/09/15 08:18:36;;;;;;;5.50;0.60;;;17.70;87.40;;;;;;5054960;28;20021;-77
2022/09/15 08:21:06;;;;;;;4.85;0.60;;;17.70;87.20;;;;;;5053025;28;20029;-77
2022/09/15 08:23:32;;;;;;;2.83;0.80;;;17.70;86.70;;;;;;5053698;28;20024;-79
2022/09/15 08:25:59;;;;;;;6.15;0.68;;;17.70;86.50;;;;;;5054471;28;20021;-79
2022/09/15 08:28:25;;;;;;;5.20;0.90;;;17.70;86.30;;;;;;5053462;28;20033;-78
2022/09/15 08:30:58;;;;;;;7.03;0.55;;;17.70;86.30;;;;;;5037223;28;20052;-78
2022/09/15 08:33:24;;;;;;;5.80;0.70;;;17.80;86.60;;;;;;5054885;28;20466;-78
2022/09/15 08:35:50;;;;;;;6.38;0.52;;;17.80;85.90;;;;;;5053420;28;20036;-78
2022/09/15 08:38:15;;;;;;;3.20;0.50;;;17.80;85.90;;;;;;5036658;28;20542;-78
2022/09/15 08:40:44;;;;;;;8.65;0.85;;;17.90;86.00;;;;;;5053261;28;20036;-78
2022/09/15 08:43:19;;;;;;;5.75;0.90;;;17.90;85.50;;;;;;5054356;28;20021;-78
2022/09/15 08:46:03;;;;;;;4.53;0.57;;;17.90;85.40;;;;;;5053136;28;20029;-78
2022/09/15 08:48:48;;;;;;;3.70;0.50;;;18.00;84.80;;;;;;5054076;28;20017;-77
2022/09/15 08:51:22;;;;;;;2.45;0.40;;;18.00;84.80;;;;;;5052936;28;20526;-77
2022/09/15 08:54:06;;;;;;;3.85;0.35;;;18.00;84.20;;;;;;5054165;28;20463;-77
2022/09/15 08:56:33;;;;;;;2.72;0.50;;;18.00;83.40;;;;;;5054046;28;20049;-77
2022/09/15 08:58:59;;;;;;;5.43;0.40;;;18.00;83.20;;;;;;5053091;28;20110;-77
2022/09/15 09:01:33;;;;;;;3.85;0.50;;;18.00;83.50;;;;;;5052632;28;20053;-77
2022/09/15 09:04:56;;;;;;;4.10;0.52;;;18.10;83.60;;;;;;5052572;28;20017;-77
2022/09/15 09:07:34;;;;;;;3.42;0.85;;;18.20;82.90;;;;;;5051968;28;20033;-77
2022/09/15 09:10:18;;;;;;;3.47;0.70;;;18.20;82.80;;;;;;5052770;28;20017;-77
2022/09/15 09:13:13;;;;;;;3.75;0.60;;;18.40;82.70;;;;;;5052704;28;20476;-78
2022/09/15 09:15:47;;;;;;;4.63;0.45;;;18.50;81.90;;;;;;5047785;28;20036;-77
2022/09/15 09:18:24;;;;;;;4.55;0.50;;;18.50;81.70;;;;;;5056131;28;20507;-80
2022/09/15 09:21:11;;;;;;;3.40;0.40;;;18.60;81.40;;;;;;5055536;28;20446;-78
2022/09/15 09:23:51;;;;;;;6.35;0.70;;;18.70;80.40;;;;;;5052750;28;20025;-81
2022/09/15 09:26:17;;;;;;;3.10;0.57;;;18.80;79.60;;;;;;5052947;28;20023;-80
2022/09/15 09:28:59;;;;;;;4.68;0.40;;;18.80;79.30;;;;;;5036302;28;20025;-79
2022/09/15 09:31:28;;;;;;;3.65;0.50;;;18.80;78.50;;;;;;5052950;28;20025;-80
2022/09/15 09:34:19;;;;;;;2.15;0.40;;;18.80;77.60;;;;;;5053194;28;20468;-80
2022/09/15 09:36:51;;;;;;;4.30;0.60;;;18.80;77.50;;;;;;5055277;28;20473;-80
2022/09/15 09:39:17;;;;;;;5.07;0.55;;;18.90;77.20;;;;;;5053817;28;20469;-78
2022/09/15 09:41:44;;;;;;;5.07;0.73;;;19.00;77.20;;;;;;5053676;28;20090;-80
2022/09/15 09:44:12;;;;;;;2.90;0.30;;;19.00;76.50;;;;;;5052208;28;20404;-80
2022/09/15 09:46:39;;;;;;;2.35;0.40;;;19.00;76.10;;;;;;5052591;28;20017;-80
2022/09/15 09:49:19;;;;;;;4.28;0.50;;;19.00;75.60;;;;;;5052416;28;20037;-80
2022/09/15 09:51:54;;;;;;;4.18;0.75;;;19.00;75.10;;;;;;5052450;28;20025;-80
2022/09/15 09:54:23;;;;;;;5.20;0.70;;;18.80;74.60;;;;;;5036399;28;20025;-78
2022/09/15 09:56:51;;;;;;;6.28;0.60;;;18.80;74.70;;;;;;5053410;28;20033;-79
2022/09/15 09:59:38;;;;;;;2.45;0.50;;;18.70;74.80;;;;;;5051953;28;20047;-78
2022/09/15 10:02:11;;;;;;;4.32;0.40;;;18.60;74.90;;;;;;5052723;28;20029;-78
2022/09/15 10:04:38;;;;;;;2.92;0.40;;;18.50;75.10;;;;;;5054136;28;20036;-79
2022/09/15 10:07:04;;;;;;;3.55;0.40;;;18.50;75.50;;;;;;5052758;28;20377;-78
2022/09/15 10:09:30;;;;;;;4.68;0.50;;;18.50;76.10;;;;;;5052338;28;20013;-81
2022/09/15 10:11:59;;;;;;;4.65;0.93;;;18.50;76.50;;;;;;5053034;28;20071;-78
2022/09/15 10:14:35;;;;;;;4.20;0.40;;;18.60;76.90;;;;;;5053745;28;20033;-79
2022/09/15 10:17:08;;;;;;;4.15;0.40;;;18.60;76.70;;;;;;5054454;28;20074;-79
2022/09/15 10:19:43;;;;;;;5.13;0.50;;;18.70;76.90;;;;;;5052436;28;20385;-79
2022/09/15 10:22:37;;;;;;;6.20;0.90;;;18.70;76.90;;;;;;5053005;28;20036;-78
2022/09/15 10:25:25;;;;;;;4.90;0.50;;;18.80;76.70;;;;;;5053297;28;20060;-78
2022/09/15 10:28:13;;;;;;;4.95;0.60;;;19.10;77.00;;;;;;5051783;28;20032;-80
2022/09/15 10:30:57;;;;;;;4.18;0.50;;;19.50;77.00;;;;;;5053682;28;20072;-80
2022/09/15 10:33:23;;;;;;;6.75;0.55;;;19.70;76.70;;;;;;5053455;28;20079;-81
2022/09/15 10:35:50;;;;;;;4.72;0.50;;;19.80;75.50;;;;;;5052350;28;20025;-79
2022/09/15 10:38:48;;;;;;;4.38;0.50;;;19.80;74.80;;;;;;5053945;28;20393;-78
2022/09/15 10:41:25;;;;;;;3.80;0.47;;;19.70;74.30;;;;;;5053646;28;20674;-80
2022/09/15 10:44:10;;;;;;;7.55;0.95;;;19.70;74.20;;;;;;5053567;28;20435;-77
2022/09/15 10:47:03;;;;;;;2.33;0.22;;;19.50;72.60;;;;;;5054981;28;20033;-81
2022/09/15 10:49:47;;;;;;;3.40;0.30;;;19.30;72.20;;;;;;5055325;28;20028;-78
2022/09/15 10:52:31;;;;;;;3.90;0.40;;;19.10;72.20;;;;;;5055916;28;20029;-78
2022/09/15 10:55:21;;;;;;;3.38;0.30;;;18.90;72.70;;;;;;5054941;28;20423;-79
2022/09/15 10:57:50;;;;;;;5.35;0.93;;;18.90;73.50;;;;;;5055043;28;20025;-80
2022/09/15 11:00:23;;;;;;;2.60;0.45;;;18.90;74.00;;;;;;5056166;28;20045;-81
2022/09/15 11:03:10;;;;;;;3.55;0.40;;;18.90;73.90;;;;;;5056398;28;20040;-79
2022/09/15 11:05:38;;;;;;;4.68;0.40;;;19.00;73.90;;;;;;5056105;28;20036;-81
2022/09/15 11:08:25;;;;;;;4.45;0.60;;;19.00;73.60;;;;;;5056775;28;20114;-79
2022/09/15 11:11:00;;;;;;;2.97;0.47;;;19.10;73.10;;;;;;5055229;28;20032;-80
2022/09/15 11:13:43;;;;;;;2.58;0.30;;;19.00;72.80;;;;;;5057461;28;20059;-80
2022/09/15 11:16:26;;;;;;;5.28;0.60;;;19.00;73.50;;;;;;5055044;28;20567;-79
2022/09/15 11:19:13;;;;;;;7.07;0.50;;;19.00;72.20;;;;;;5055822;28;20025;-79
2022/09/15 11:21:48;;;;;;;2.72;0.40;;;18.90;72.20;;;;;;5056478;28;20029;-80
2022/09/15 11:24:47;;;;;;;3.97;0.43;;;18.90;71.90;;;;;;5056574;28;20025;-81
2022/09/15 11:27:19;;;;;;;4.75;0.70;;;18.90;72.20;;;;;;5057274;28;20056;-80
2022/09/15 11:30:06;;;;;;;5.53;0.95;;;18.90;72.20;;;;;;5056599;28;20019;-79
2022/09/15 11:32:52;;;;;;;3.13;0.50;;;19.00;72.40;;;;;;5057901;28;20462;-80
2022/09/15 11:35:40;;;;;;;4.13;0.50;;;19.10;72.40;;;;;;5051119;28;20079;-81
2022/09/15 11:38:27;;;;;;;5.82;0.65;;;19.30;72.40;;;;;;5054835;28;20056;-81
2022/09/15 11:41:09;;;;;;;3.92;0.60;;;19.60;72.30;;;;;;5056058;28;20032;-81
2022/09/15 11:44:08;;;;;;;3.33;0.60;;;20.00;72.50;;;;;;5056406;28;20436;-79
2022/09/15 11:47:04;;;;;;;1.63;0.30;;;20.40;71.00;;;;;;5054713;28;20021;-79
2022/09/15 11:49:39;;;;;;;5.75;0.63;;;20.70;70.30;;;;;;5054660;28;20029;-79
2022/09/15 11:52:27;;;;;;;4.28;0.50;;;20.90;68.40;;;;;;5054333;28;20477;-79
2022/09/15 11:55:14;;;;;;;5.95;0.77;;;20.90;66.90;;;;;;5040483;28;20044;-78
2022/09/15 11:58:18;;;;;;;2.45;0.50;;;20.80;66.70;;;;;;5054502;28;20546;-80
2022/09/15 12:00:52;;;;;;;3.75;0.50;;;20.80;67.10;;;;;;5054098;28;20048;-79
2022/09/15 12:03:21;;;;;;;7.95;0.77;;;21.00;67.30;;;;;;5055387;28;20031;-80
2022/09/15 12:05:53;;;;;;;6.63;0.73;;;21.20;66.70;;;;;;5054298;28;20021;-79
2022/09/15 12:08:53;;;;;;;3.20;0.60;;;21.50;66.20;;;;;;5055617;28;20025;-80
2022/09/15 12:11:22;;;;;;;3.47;0.50;;;22.40;66.70;;;;;;5053500;28;20033;-80
2022/09/15 12:13:48;;;;;;;4.10;0.70;;;23.30;65.10;;;;;;5054185;28;20028;-78
2022/09/15 12:16:15;;;;;;;2.40;0.65;;;23.90;62.00;;;;;;5038161;28;20025;-81
2022/09/15 12:19:00;;;;;;;3.33;1.05;;;24.50;60.30;;;;;;5054066;28;20108;-79
2022/09/15 12:21:47;;;;;;;1.85;0.40;;;25.20;58.50;;;;;;5054290;28;20025;-77
2022/09/15 12:24:44;;;;;;;4.03;0.45;;;25.50;56.60;;;;;;5054738;28;20495;-77
2022/09/15 12:27:15;;;;;;;2.35;0.38;;;25.40;55.60;;;;;;5049578;28;20036;-79
2022/09/15 12:29:48;;;;;;;4.18;0.50;;;25.10;54.30;;;;;;5054011;28;20017;-78
2022/09/15 12:32:27;;;;;;;4.30;0.50;;;24.60;52.70;;;;;;5055702;28;20021;-80
2022/09/15 12:35:03;;;;;;;4.50;0.55;;;24.00;53.40;;;;;;5054787;28;20033;-77
2022/09/15 12:37:45;;;;;;;3.30;0.68;;;23.50;53.20;;;;;;5052959;28;20527;-74
2022/09/15 12:40:29;;;;;;;3.42;0.45;;;22.90;54.00;;;;;;5054353;28;20021;-76
2022/09/15 12:42:56;;;;;;;4.88;0.63;;;22.40;55.40;;;;;;5054424;28;20040;-78
2022/09/15 12:45:26;;;;;;;7.32;0.70;;;22.00;56.30;;;;;;5053323;28;20025;-76
2022/09/15 12:48:10;;;;;;;5.97;0.70;;;21.70;57.30;;;;;;5054346;28;20457;-78
2022/09/15 12:51:03;;;;;;;3.90;0.45;;;21.40;57.90;;;;;;5053040;28;20107;-78
2022/09/15 12:53:32;;;;;;;5.38;0.75;;;21.20;58.60;;;;;;5053123;28;20021;-81
2022/09/15 12:56:05;;;;;;;2.92;0.50;;;21.70;58.80;;;;;;5052999;28;20477;-83
2022/09/15 12:58:56;;;;;;;6.07;0.75;;;22.40;57.30;;;;;;5052764;28;20535;-80
2022/09/15 13:01:28;;;;;;;5.45;0.60;;;23.20;55.70;;;;;;5052351;28;20052;-83
2022/09/15 13:03:57;;;;;;;5.97;0.50;;;24.10;53.00;;;;;;5054008;28;20029;-82
2022/09/15 13:06:26;;;;;;;2.70;0.40;;;24.80;51.00;;;;;;5053780;28;20031;-78
2022/09/15 13:09:02;;;;;;;1.98;0.45;;;25.40;48.80;;;;;;5036344;28;20469;-81